sensor_id;sensor_type;location;lat;lon;timestamp;P1;durP1;ratioP1;P2;durP2;ratioP2
12896;SDS011;6516;35.028;32.372;2023-04-30T06:43:38;8.13;;;3.43;;
12896;SDS011;6516;35.028;32.372;2023-04-30T06:46:07;6.57;;;3.10;;
12896;SDS011;6516;35.028;32.372;2023-04-30T06:48:35;10.80;;;3.20;;
12896;SDS011;6516;35.028;32.372;2023-04-30T06:51:03;8.37;;;2.83;;
12896;SDS011;6516;35.028;32.372;2023-04-30T06:53:31;9.05;;;3.20;;
12896;SDS011;6516;35.028;32.372;2023-04-30T06:55:59;7.55;;;2.80;;
12896;SDS011;6516;35.028;32.372;2023-04-30T06:58:28;9.13;;;2.95;;
12896;SDS011;6516;35.028;32.372;2023-04-30T07:00:57;10.50;;;3.00;;
12896;SDS011;6516;35.028;32.372;2023-04-30T07:03:25;8.07;;;2.90;;
12896;SDS011;6516;35.028;32.372;2023-04-30T07:05:56;8.30;;;2.95;;
12896;SDS011;6516;35.028;32.372;2023-04-30T07:08:24;10.38;;;2.75;;
12896;SDS011;6516;35.028;32.372;2023-04-30T07:10:52;11.57;;;3.00;;
12896;SDS011;6516;35.028;32.372;2023-04-30T07:13:20;7.28;;;3.10;;
12896;SDS011;6516;35.028;32.372;2023-04-30T07:15:47;9.87;;;3.10;;
12896;SDS011;6516;35.028;32.372;2023-04-30T07:18:17;9.20;;;2.92;;
12896;SDS011;6516;35.028;32.372;2023-04-30T07:20:45;9.07;;;3.03;;
12896;SDS011;6516;35.028;32.372;2023-04-30T07:23:12;8.38;;;2.95;;
12896;SDS011;6516;35.028;32.372;2023-04-30T07:25:40;8.80;;;3.13;;
12896;SDS011;6516;35.028;32.372;2023-04-30T07:28:08;7.93;;;2.70;;
12896;SDS011;6516;35.028;32.372;2023-04-30T07:30:36;7.80;;;3.00;;
12896;SDS011;6516;35.028;32.372;2023-04-30T07:33:04;7.78;;;3.08;;
12896;SDS011;6516;35.028;32.372;2023-04-30T07:35:34;5.82;;;2.65;;
12896;SDS011;6516;35.028;32.372;2023-04-30T07:38:02;8.10;;;3.25;;
12896;SDS011;6516;35.028;32.372;2023-04-30T07:40:30;11.33;;;3.20;;
12896;SDS011;6516;35.028;32.372;2023-04-30T07:42:58;8.48;;;2.97;;
12896;SDS011;6516;35.028;32.372;2023-04-30T07:45:25;7.38;;;2.80;;
12896;SDS011;6516;35.028;32.372;2023-04-30T07:47:53;7.55;;;3.42;;
12896;SDS011;6516;35.028;32.372;2023-04-30T07:50:21;6.20;;;2.70;;
12896;SDS011;6516;35.028;32.372;2023-04-30T07:52:50;6.20;;;2.63;;
12896;SDS011;6516;35.028;32.372;2023-04-30T07:55:18;8.55;;;2.90;;
12896;SDS011;6516;35.028;32.372;2023-04-30T07:57:46;7.53;;;2.90;;
12896;SDS011;6516;35.028;32.372;2023-04-30T08:00:14;7.97;;;3.45;;
12896;SDS011;6516;35.028;32.372;2023-04-30T08:02:42;6.95;;;2.90;;
12896;SDS011;6516;35.028;32.372;2023-04-30T08:05:12;9.23;;;3.00;;
12896;SDS011;6516;35.028;32.372;2023-04-30T08:07:40;8.80;;;2.78;;
12896;SDS011;6516;35.028;32.372;2023-04-30T08:10:11;8.77;;;3.05;;
12896;SDS011;6516;35.028;32.372;2023-04-30T08:12:39;9.02;;;3.08;;
12896;SDS011;6516;35.028;32.372;2023-04-30T08:15:06;8.73;;;2.70;;
12896;SDS011;6516;35.028;32.372;2023-04-30T08:17:34;7.73;;;3.10;;
12896;SDS011;6516;35.028;32.372;2023-04-30T08:20:02;7.53;;;2.90;;
12896;SDS011;6516;35.028;32.372;2023-04-30T08:22:32;7.55;;;2.97;;
12896;SDS011;6516;35.028;32.372;2023-04-30T08:25:00;7.10;;;2.67;;
12896;SDS011;6516;35.028;32.372;2023-04-30T08:27:30;6.45;;;3.13;;
12896;SDS011;6516;35.028;32.372;2023-04-30T08:29:58;5.87;;;2.70;;
12896;SDS011;6516;35.028;32.372;2023-04-30T08:32:26;8.30;;;2.88;;
12896;SDS011;6516;35.028;32.372;2023-04-30T08:34:54;9.50;;;2.92;;
12896;SDS011;6516;35.028;32.372;2023-04-30T08:37:22;7.18;;;3.00;;
12896;SDS011;6516;35.028;32.372;2023-04-30T08:39:50;7.38;;;2.80;;
12896;SDS011;6516;35.028;32.372;2023-04-30T08:42:18;7.27;;;3.10;;
12896;SDS011;6516;35.028;32.372;2023-04-30T08:44:52;8.50;;;3.30;;
12896;SDS011;6516;35.028;32.372;2023-04-30T08:47:20;6.68;;;2.70;;
12896;SDS011;6516;35.028;32.372;2023-04-30T08:49:53;8.30;;;2.88;;
12896;SDS011;6516;35.028;32.372;2023-04-30T08:52:21;7.40;;;3.15;;
12896;SDS011;6516;35.028;32.372;2023-04-30T08:54:49;10.20;;;3.20;;
12896;SDS011;6516;35.028;32.372;2023-04-30T08:57:18;8.13;;;3.10;;
12896;SDS011;6516;35.028;32.372;2023-04-30T08:59:46;10.38;;;3.30;;
12896;SDS011;6516;35.028;32.372;2023-04-30T09:02:15;6.75;;;3.03;;
12896;SDS011;6516;35.028;32.372;2023-04-30T09:04:43;9.95;;;3.28;;
12896;SDS011;6516;35.028;32.372;2023-04-30T09:07:11;8.07;;;3.00;;
12896;SDS011;6516;35.028;32.372;2023-04-30T09:09:40;9.23;;;3.08;;
12896;SDS011;6516;35.028;32.372;2023-04-30T09:12:12;10.60;;;3.25;;
12896;SDS011;6516;35.028;32.372;2023-04-30T09:14:49;8.50;;;2.92;;
12896;SDS011;6516;35.028;32.372;2023-04-30T09:17:27;8.60;;;3.15;;
12896;SDS011;6516;35.028;32.372;2023-04-30T09:19:55;6.00;;;3.10;;
12896;SDS011;6516;35.028;32.372;2023-04-30T09:22:34;10.63;;;3.42;;
12896;SDS011;6516;35.028;32.372;2023-04-30T09:25:03;8.70;;;3.00;;
12896;SDS011;6516;35.028;32.372;2023-04-30T09:27:32;10.15;;;3.00;;
12896;SDS011;6516;35.028;32.372;2023-04-30T09:30:00;8.15;;;3.42;;
12896;SDS011;6516;35.028;32.372;2023-04-30T09:32:29;6.17;;;3.13;;
12896;SDS011;6516;35.028;32.372;2023-04-30T09:34:57;9.15;;;3.00;;
12896;SDS011;6516;35.028;32.372;2023-04-30T09:37:33;9.20;;;2.97;;
12896;SDS011;6516;35.028;32.372;2023-04-30T09:40:02;8.80;;;3.20;;
12896;SDS011;6516;35.028;32.372;2023-04-30T09:42:31;7.57;;;3.03;;
12896;SDS011;6516;35.028;32.372;2023-04-30T09:44:59;7.83;;;3.10;;
12896;SDS011;6516;35.028;32.372;2023-04-30T09:47:30;8.68;;;3.38;;
12896;SDS011;6516;35.028;32.372;2023-04-30T09:50:00;7.78;;;3.35;;
12896;SDS011;6516;35.028;32.372;2023-04-30T09:52:28;8.82;;;3.20;;
12896;SDS011;6516;35.028;32.372;2023-04-30T09:54:56;6.85;;;3.17;;
12896;SDS011;6516;35.028;32.372;2023-04-30T09:57:24;7.33;;;3.40;;
12896;SDS011;6516;35.028;32.372;2023-04-30T09:59:56;8.95;;;3.17;;
12896;SDS011;6516;35.028;32.372;2023-04-30T10:02:26;8.55;;;3.30;;
12896;SDS011;6516;35.028;32.372;2023-04-30T10:04:56;8.30;;;3.03;;
12896;SDS011;6516;35.028;32.372;2023-04-30T10:07:26;9.32;;;3.45;;
12896;SDS011;6516;35.028;32.372;2023-04-30T10:10:02;7.63;;;3.20;;
12896;SDS011;6516;35.028;32.372;2023-04-30T10:12:37;9.30;;;3.17;;
12896;SDS011;6516;35.028;32.372;2023-04-30T10:15:10;7.50;;;3.33;;
12896;SDS011;6516;35.028;32.372;2023-04-30T10:17:41;9.77;;;3.53;;
12896;SDS011;6516;35.028;32.372;2023-04-30T10:20:14;8.05;;;3.22;;
12896;SDS011;6516;35.028;32.372;2023-04-30T10:22:45;9.33;;;3.10;;
12896;SDS011;6516;35.028;32.372;2023-04-30T10:25:14;11.43;;;3.25;;
12896;SDS011;6516;35.028;32.372;2023-04-30T10:27:43;10.82;;;3.33;;
12896;SDS011;6516;35.028;32.372;2023-04-30T10:30:11;7.05;;;3.10;;
12896;SDS011;6516;35.028;32.372;2023-04-30T10:32:43;8.27;;;3.45;;
12896;SDS011;6516;35.028;32.372;2023-04-30T10:35:21;9.30;;;3.47;;
12896;SDS011;6516;35.028;32.372;2023-04-30T10:37:54;9.43;;;4.10;;
12896;SDS011;6516;35.028;32.372;2023-04-30T10:40:28;8.35;;;3.78;;
12896;SDS011;6516;35.028;32.372;2023-04-30T10:43:02;8.30;;;3.75;;
12896;SDS011;6516;35.028;32.372;2023-04-30T10:45:33;7.60;;;3.75;;
12896;SDS011;6516;35.028;32.372;2023-04-30T10:48:02;9.63;;;3.83;;
12896;SDS011;6516;35.028;32.372;2023-04-30T10:50:33;6.78;;;3.60;;
12896;SDS011;6516;35.028;32.372;2023-04-30T10:53:07;8.07;;;3.53;;
12896;SDS011;6516;35.028;32.372;2023-04-30T10:55:44;7.93;;;3.53;;
12896;SDS011;6516;35.028;32.372;2023-04-30T10:58:26;9.55;;;3.70;;
12896;SDS011;6516;35.028;32.372;2023-04-30T11:00:59;7.67;;;3.30;;
12896;SDS011;6516;35.028;32.372;2023-04-30T11:03:28;6.78;;;3.20;;
12896;SDS011;6516;35.028;32.372;2023-04-30T11:05:59;7.90;;;3.65;;
12896;SDS011;6516;35.028;32.372;2023-04-30T11:08:34;7.75;;;3.50;;
12896;SDS011;6516;35.028;32.372;2023-04-30T11:11:07;7.25;;;3.40;;
12896;SDS011;6516;35.028;32.372;2023-04-30T11:13:38;8.33;;;3.20;;
12896;SDS011;6516;35.028;32.372;2023-04-30T11:16:08;7.68;;;3.33;;
12896;SDS011;6516;35.028;32.372;2023-04-30T11:18:40;7.07;;;3.60;;
12896;SDS011;6516;35.028;32.372;2023-04-30T11:21:11;8.95;;;3.67;;
12896;SDS011;6516;35.028;32.372;2023-04-30T11:23:42;9.68;;;3.50;;
12896;SDS011;6516;35.028;32.372;2023-04-30T11:26:10;8.63;;;3.83;;
12896;SDS011;6516;35.028;32.372;2023-04-30T11:28:38;9.30;;;3.40;;
12896;SDS011;6516;35.028;32.372;2023-04-30T11:31:18;7.40;;;3.40;;
12896;SDS011;6516;35.028;32.372;2023-04-30T11:33:46;8.77;;;4.30;;
12896;SDS011;6516;35.028;32.372;2023-04-30T11:36:18;8.02;;;3.20;;
12896;SDS011;6516;35.028;32.372;2023-04-30T11:38:46;9.23;;;3.77;;
12896;SDS011;6516;35.028;32.372;2023-04-30T11:41:14;7.68;;;3.50;;
12896;SDS011;6516;35.028;32.372;2023-04-30T11:43:42;8.50;;;3.40;;
12896;SDS011;6516;35.028;32.372;2023-04-30T11:46:10;8.75;;;3.60;;
12896;SDS011;6516;35.028;32.372;2023-04-30T11:48:39;8.00;;;3.90;;
12896;SDS011;6516;35.028;32.372;2023-04-30T11:51:15;7.93;;;3.93;;
12896;SDS011;6516;35.028;32.372;2023-04-30T11:53:46;8.85;;;3.50;;
12896;SDS011;6516;35.028;32.372;2023-04-30T11:56:19;7.50;;;3.28;;
12896;SDS011;6516;35.028;32.372;2023-04-30T11:58:48;7.82;;;3.83;;
12896;SDS011;6516;35.028;32.372;2023-04-30T12:01:19;10.07;;;4.20;;
12896;SDS011;6516;35.028;32.372;2023-04-30T12:03:47;7.67;;;3.90;;
12896;SDS011;6516;35.028;32.372;2023-04-30T12:06:21;8.43;;;3.83;;
12896;SDS011;6516;35.028;32.372;2023-04-30T12:08:51;8.90;;;4.50;;
12896;SDS011;6516;35.028;32.372;2023-04-30T12:11:20;10.18;;;4.65;;
12896;SDS011;6516;35.028;32.372;2023-04-30T12:13:50;9.93;;;4.78;;
12896;SDS011;6516;35.028;32.372;2023-04-30T12:16:19;14.07;;;5.50;;
12896;SDS011;6516;35.028;32.372;2023-04-30T12:18:47;9.25;;;5.28;;
12896;SDS011;6516;35.028;32.372;2023-04-30T12:21:16;12.73;;;5.88;;
12896;SDS011;6516;35.028;32.372;2023-04-30T12:23:46;10.02;;;5.43;;
12896;SDS011;6516;35.028;32.372;2023-04-30T12:26:14;10.23;;;5.38;;
12896;SDS011;6516;35.028;32.372;2023-04-30T12:28:42;12.90;;;5.80;;
12896;SDS011;6516;35.028;32.372;2023-04-30T12:31:12;11.95;;;6.00;;
12896;SDS011;6516;35.028;32.372;2023-04-30T12:33:40;13.80;;;6.43;;
12896;SDS011;6516;35.028;32.372;2023-04-30T12:36:09;10.77;;;6.47;;
12896;SDS011;6516;35.028;32.372;2023-04-30T12:38:36;9.70;;;6.25;;
12896;SDS011;6516;35.028;32.372;2023-04-30T12:41:11;10.70;;;6.10;;
12896;SDS011;6516;35.028;32.372;2023-04-30T12:43:41;13.65;;;6.47;;
12896;SDS011;6516;35.028;32.372;2023-04-30T12:46:09;12.43;;;6.43;;
12896;SDS011;6516;35.028;32.372;2023-04-30T12:48:42;10.23;;;5.80;;
12896;SDS011;6516;35.028;32.372;2023-04-30T12:51:10;9.38;;;5.88;;
12896;SDS011;6516;35.028;32.372;2023-04-30T12:53:43;11.77;;;6.90;;
12896;SDS011;6516;35.028;32.372;2023-04-30T12:56:13;10.82;;;6.63;;
12896;SDS011;6516;35.028;32.372;2023-04-30T12:58:43;11.98;;;6.70;;
12896;SDS011;6516;35.028;32.372;2023-04-30T13:01:15;11.88;;;6.18;;
12896;SDS011;6516;35.028;32.372;2023-04-30T13:03:44;11.95;;;7.03;;
12896;SDS011;6516;35.028;32.372;2023-04-30T13:06:12;14.40;;;7.00;;
12896;SDS011;6516;35.028;32.372;2023-04-30T13:08:40;11.70;;;6.43;;
12896;SDS011;6516;35.028;32.372;2023-04-30T13:11:08;12.75;;;7.03;;
12896;SDS011;6516;35.028;32.372;2023-04-30T13:13:37;11.10;;;6.65;;
12896;SDS011;6516;35.028;32.372;2023-04-30T13:16:06;11.18;;;6.90;;
12896;SDS011;6516;35.028;32.372;2023-04-30T13:18:34;12.33;;;7.40;;
12896;SDS011;6516;35.028;32.372;2023-04-30T13:21:01;11.57;;;6.85;;
12896;SDS011;6516;35.028;32.372;2023-04-30T13:23:29;9.60;;;5.90;;
12896;SDS011;6516;35.028;32.372;2023-04-30T13:25:57;11.35;;;6.22;;
12896;SDS011;6516;35.028;32.372;2023-04-30T13:28:25;11.43;;;6.40;;
12896;SDS011;6516;35.028;32.372;2023-04-30T13:30:54;9.60;;;6.30;;
12896;SDS011;6516;35.028;32.372;2023-04-30T13:33:22;12.05;;;7.40;;
12896;SDS011;6516;35.028;32.372;2023-04-30T13:35:50;15.73;;;7.10;;
12896;SDS011;6516;35.028;32.372;2023-04-30T13:38:17;12.82;;;7.25;;
12896;SDS011;6516;35.028;32.372;2023-04-30T13:40:46;11.65;;;7.05;;
12896;SDS011;6516;35.028;32.372;2023-04-30T13:43:14;11.97;;;6.77;;
12896;SDS011;6516;35.028;32.372;2023-04-30T13:45:42;13.25;;;7.43;;
12896;SDS011;6516;35.028;32.372;2023-04-30T13:48:12;10.23;;;6.78;;
12896;SDS011;6516;35.028;32.372;2023-04-30T13:50:39;11.82;;;7.38;;
12896;SDS011;6516;35.028;32.372;2023-04-30T13:53:07;12.00;;;7.07;;
12896;SDS011;6516;35.028;32.372;2023-04-30T13:55:35;9.33;;;6.60;;
12896;SDS011;6516;35.028;32.372;2023-04-30T13:58:03;12.77;;;6.85;;
12896;SDS011;6516;35.028;32.372;2023-04-30T14:00:30;11.50;;;6.80;;
12896;SDS011;6516;35.028;32.372;2023-04-30T14:02:58;10.70;;;6.47;;
12896;SDS011;6516;35.028;32.372;2023-04-30T14:05:27;8.95;;;6.55;;
12896;SDS011;6516;35.028;32.372;2023-04-30T14:07:55;9.13;;;6.33;;
12896;SDS011;6516;35.028;32.372;2023-04-30T14:10:23;11.23;;;6.25;;
12896;SDS011;6516;35.028;32.372;2023-04-30T14:12:51;9.90;;;6.60;;
12896;SDS011;6516;35.028;32.372;2023-04-30T14:15:19;9.30;;;6.82;;
12896;SDS011;6516;35.028;32.372;2023-04-30T14:17:47;10.50;;;6.32;;
12896;SDS011;6516;35.028;32.372;2023-04-30T14:20:14;13.37;;;6.10;;
12896;SDS011;6516;35.028;32.372;2023-04-30T14:22:44;10.73;;;6.38;;
12896;SDS011;6516;35.028;32.372;2023-04-30T14:25:11;11.60;;;5.97;;
12896;SDS011;6516;35.028;32.372;2023-04-30T14:27:39;9.93;;;6.60;;
12896;SDS011;6516;35.028;32.372;2023-04-30T14:30:07;11.93;;;6.97;;
12896;SDS011;6516;35.028;32.372;2023-04-30T14:32:36;11.23;;;6.37;;
12896;SDS011;6516;35.028;32.372;2023-04-30T14:35:04;9.63;;;6.60;;
12896;SDS011;6516;35.028;32.372;2023-04-30T14:37:33;9.90;;;6.45;;
12896;SDS011;6516;35.028;32.372;2023-04-30T14:40:03;12.40;;;6.95;;
12896;SDS011;6516;35.028;32.372;2023-04-30T14:42:32;10.75;;;7.05;;
12896;SDS011;6516;35.028;32.372;2023-04-30T14:45:00;12.97;;;7.20;;
12896;SDS011;6516;35.028;32.372;2023-04-30T14:47:28;12.68;;;7.30;;
12896;SDS011;6516;35.028;32.372;2023-04-30T14:49:56;12.25;;;7.20;;
12896;SDS011;6516;35.028;32.372;2023-04-30T14:52:26;11.38;;;7.65;;
12896;SDS011;6516;35.028;32.372;2023-04-30T14:54:54;11.55;;;7.28;;
12896;SDS011;6516;35.028;32.372;2023-04-30T14:57:23;12.10;;;7.00;;
12896;SDS011;6516;35.028;32.372;2023-04-30T14:59:51;17.55;;;6.93;;
12896;SDS011;6516;35.028;32.372;2023-04-30T15:02:21;12.43;;;6.80;;
12896;SDS011;6516;35.028;32.372;2023-04-30T15:04:49;10.95;;;7.40;;
12896;SDS011;6516;35.028;32.372;2023-04-30T15:07:19;12.25;;;7.43;;
12896;SDS011;6516;35.028;32.372;2023-04-30T15:09:47;20.43;;;7.47;;
12896;SDS011;6516;35.028;32.372;2023-04-30T15:12:14;11.45;;;7.80;;
12896;SDS011;6516;35.028;32.372;2023-04-30T15:14:43;10.15;;;7.00;;
12896;SDS011;6516;35.028;32.372;2023-04-30T15:17:11;11.90;;;6.82;;
12896;SDS011;6516;35.028;32.372;2023-04-30T15:19:39;12.23;;;7.00;;
12896;SDS011;6516;35.028;32.372;2023-04-30T15:22:07;11.73;;;7.63;;
12896;SDS011;6516;35.028;32.372;2023-04-30T15:24:35;10.68;;;6.70;;
12896;SDS011;6516;35.028;32.372;2023-04-30T15:27:03;11.90;;;7.28;;
12896;SDS011;6516;35.028;32.372;2023-04-30T15:29:31;9.57;;;6.50;;
12896;SDS011;6516;35.028;32.372;2023-04-30T15:32:00;10.77;;;7.30;;
12896;SDS011;6516;35.028;32.372;2023-04-30T15:34:28;11.70;;;7.17;;
12896;SDS011;6516;35.028;32.372;2023-04-30T15:36:56;10.73;;;7.38;;
12896;SDS011;6516;35.028;32.372;2023-04-30T15:39:24;11.48;;;7.53;;
12896;SDS011;6516;35.028;32.372;2023-04-30T15:41:52;10.15;;;7.05;;
12896;SDS011;6516;35.028;32.372;2023-04-30T15:44:20;10.93;;;7.00;;
12896;SDS011;6516;35.028;32.372;2023-04-30T15:46:47;15.47;;;8.60;;
12896;SDS011;6516;35.028;32.372;2023-04-30T15:49:17;12.65;;;7.25;;
12896;SDS011;6516;35.028;32.372;2023-04-30T15:51:45;11.43;;;7.63;;
12896;SDS011;6516;35.028;32.372;2023-04-30T15:54:13;17.10;;;7.85;;
12896;SDS011;6516;35.028;32.372;2023-04-30T15:56:40;11.52;;;7.60;;
12896;SDS011;6516;35.028;32.372;2023-04-30T15:59:09;11.53;;;7.77;;
12896;SDS011;6516;35.028;32.372;2023-04-30T16:01:40;10.95;;;7.68;;
12896;SDS011;6516;35.028;32.372;2023-04-30T16:04:08;12.20;;;7.90;;
12896;SDS011;6516;35.028;32.372;2023-04-30T16:06:37;15.35;;;7.60;;
12896;SDS011;6516;35.028;32.372;2023-04-30T16:09:05;13.20;;;7.75;;
12896;SDS011;6516;35.028;32.372;2023-04-30T16:11:34;10.67;;;7.40;;
12896;SDS011;6516;35.028;32.372;2023-04-30T16:14:02;13.93;;;7.90;;
12896;SDS011;6516;35.028;32.372;2023-04-30T16:16:29;14.90;;;8.18;;
12896;SDS011;6516;35.028;32.372;2023-04-30T16:18:57;12.52;;;7.95;;
12896;SDS011;6516;35.028;32.372;2023-04-30T16:21:25;10.82;;;7.80;;
12896;SDS011;6516;35.028;32.372;2023-04-30T16:23:54;10.70;;;7.57;;
12896;SDS011;6516;35.028;32.372;2023-04-30T16:26:22;14.10;;;8.20;;
12896;SDS011;6516;35.028;32.372;2023-04-30T16:28:51;12.27;;;7.70;;
12896;SDS011;6516;35.028;32.372;2023-04-30T16:31:19;11.20;;;7.40;;
12896;SDS011;6516;35.028;32.372;2023-04-30T16:33:47;11.98;;;7.72;;
12896;SDS011;6516;35.028;32.372;2023-04-30T16:36:15;13.23;;;8.07;;
12896;SDS011;6516;35.028;32.372;2023-04-30T16:38:43;11.85;;;8.13;;
12896;SDS011;6516;35.028;32.372;2023-04-30T16:41:13;10.55;;;7.35;;
12896;SDS011;6516;35.028;32.372;2023-04-30T16:43:41;14.82;;;7.82;;
12896;SDS011;6516;35.028;32.372;2023-04-30T16:46:10;13.90;;;8.27;;
12896;SDS011;6516;35.028;32.372;2023-04-30T16:48:38;14.20;;;8.83;;
12896;SDS011;6516;35.028;32.372;2023-04-30T16:51:05;12.57;;;8.20;;
12896;SDS011;6516;35.028;32.372;2023-04-30T16:53:33;11.75;;;8.13;;
12896;SDS011;6516;35.028;32.372;2023-04-30T16:56:01;13.63;;;8.23;;
12896;SDS011;6516;35.028;32.372;2023-04-30T16:58:30;15.18;;;8.73;;
12896;SDS011;6516;35.028;32.372;2023-04-30T17:00:58;11.03;;;8.27;;
12896;SDS011;6516;35.028;32.372;2023-04-30T17:03:26;17.42;;;8.20;;
12896;SDS011;6516;35.028;32.372;2023-04-30T17:05:54;13.20;;;7.85;;
12896;SDS011;6516;35.028;32.372;2023-04-30T17:08:22;11.70;;;8.40;;
12896;SDS011;6516;35.028;32.372;2023-04-30T17:10:50;11.88;;;8.35;;
12896;SDS011;6516;35.028;32.372;2023-04-30T17:13:18;15.87;;;9.00;;
12896;SDS011;6516;35.028;32.372;2023-04-30T17:15:47;13.60;;;8.88;;
12896;SDS011;6516;35.028;32.372;2023-04-30T17:18:15;13.18;;;8.57;;
12896;SDS011;6516;35.028;32.372;2023-04-30T17:20:43;14.60;;;9.18;;
12896;SDS011;6516;35.028;32.372;2023-04-30T17:23:12;12.55;;;8.32;;
12896;SDS011;6516;35.028;32.372;2023-04-30T17:25:39;13.20;;;9.00;;
12896;SDS011;6516;35.028;32.372;2023-04-30T17:28:07;13.77;;;8.55;;
12896;SDS011;6516;35.028;32.372;2023-04-30T17:30:35;14.20;;;9.07;;
12896;SDS011;6516;35.028;32.372;2023-04-30T17:33:04;11.95;;;8.77;;
12896;SDS011;6516;35.028;32.372;2023-04-30T17:35:32;13.55;;;8.52;;
12896;SDS011;6516;35.028;32.372;2023-04-30T17:38:00;13.50;;;9.20;;
12896;SDS011;6516;35.028;32.372;2023-04-30T17:40:28;12.02;;;8.52;;
12896;SDS011;6516;35.028;32.372;2023-04-30T17:42:57;14.20;;;9.43;;
12896;SDS011;6516;35.028;32.372;2023-04-30T17:45:24;14.02;;;8.20;;
12896;SDS011;6516;35.028;32.372;2023-04-30T17:47:52;12.45;;;9.00;;
12896;SDS011;6516;35.028;32.372;2023-04-30T17:50:21;14.47;;;9.10;;
12896;SDS011;6516;35.028;32.372;2023-04-30T17:52:49;15.23;;;8.90;;
12896;SDS011;6516;35.028;32.372;2023-04-30T17:55:17;14.63;;;9.20;;
12896;SDS011;6516;35.028;32.372;2023-04-30T17:57:46;14.50;;;8.95;;
12896;SDS011;6516;35.028;32.372;2023-04-30T18:00:14;13.10;;;9.20;;
12896;SDS011;6516;35.028;32.372;2023-04-30T18:02:42;11.37;;;8.70;;
12896;SDS011;6516;35.028;32.372;2023-04-30T18:05:10;14.07;;;9.40;;
12896;SDS011;6516;35.028;32.372;2023-04-30T18:07:40;12.52;;;8.93;;
12896;SDS011;6516;35.028;32.372;2023-04-30T18:10:08;11.52;;;8.73;;
12896;SDS011;6516;35.028;32.372;2023-04-30T18:12:36;13.38;;;8.80;;
12896;SDS011;6516;35.028;32.372;2023-04-30T18:15:05;12.47;;;8.70;;
12896;SDS011;6516;35.028;32.372;2023-04-30T18:17:34;15.68;;;8.45;;
12896;SDS011;6516;35.028;32.372;2023-04-30T18:20:01;15.20;;;9.02;;
12896;SDS011;6516;35.028;32.372;2023-04-30T18:22:30;12.20;;;8.40;;
12896;SDS011;6516;35.028;32.372;2023-04-30T18:24:59;13.38;;;9.18;;
12896;SDS011;6516;35.028;32.372;2023-04-30T18:27:28;15.40;;;9.43;;
12896;SDS011;6516;35.028;32.372;2023-04-30T18:29:58;14.85;;;9.50;;
12896;SDS011;6516;35.028;32.372;2023-04-30T18:32:25;14.52;;;9.43;;
12896;SDS011;6516;35.028;32.372;2023-04-30T18:34:53;13.45;;;9.57;;
12896;SDS011;6516;35.028;32.372;2023-04-30T18:37:22;13.07;;;8.85;;
12896;SDS011;6516;35.028;32.372;2023-04-30T18:39:50;13.50;;;9.30;;
12896;SDS011;6516;35.028;32.372;2023-04-30T18:42:19;14.07;;;9.30;;
12896;SDS011;6516;35.028;32.372;2023-04-30T18:44:48;12.13;;;8.63;;
12896;SDS011;6516;35.028;32.372;2023-04-30T18:47:16;13.10;;;9.23;;
12896;SDS011;6516;35.028;32.372;2023-04-30T18:49:44;16.67;;;10.20;;
12896;SDS011;6516;35.028;32.372;2023-04-30T18:52:12;13.83;;;10.13;;
12896;SDS011;6516;35.028;32.372;2023-04-30T18:54:40;15.57;;;9.80;;
12896;SDS011;6516;35.028;32.372;2023-04-30T18:57:07;13.45;;;9.15;;
12896;SDS011;6516;35.028;32.372;2023-04-30T18:59:40;18.75;;;9.68;;
12896;SDS011;6516;35.028;32.372;2023-04-30T19:02:08;16.13;;;10.05;;
12896;SDS011;6516;35.028;32.372;2023-04-30T19:04:38;19.33;;;10.17;;
12896;SDS011;6516;35.028;32.372;2023-04-30T19:07:06;15.00;;;10.07;;
12896;SDS011;6516;35.028;32.372;2023-04-30T19:09:34;17.55;;;9.63;;
12896;SDS011;6516;35.028;32.372;2023-04-30T19:12:02;15.60;;;9.90;;
12896;SDS011;6516;35.028;32.372;2023-04-30T19:14:30;16.85;;;10.55;;
12896;SDS011;6516;35.028;32.372;2023-04-30T19:16:59;14.77;;;9.67;;
12896;SDS011;6516;35.028;32.372;2023-04-30T19:19:27;16.35;;;10.10;;
12896;SDS011;6516;35.028;32.372;2023-04-30T19:21:55;19.08;;;9.77;;
12896;SDS011;6516;35.028;32.372;2023-04-30T19:24:23;18.88;;;9.65;;
12896;SDS011;6516;35.028;32.372;2023-04-30T19:26:51;13.98;;;9.70;;
12896;SDS011;6516;35.028;32.372;2023-04-30T19:29:19;17.03;;;9.97;;
12896;SDS011;6516;35.028;32.372;2023-04-30T19:31:48;15.40;;;10.13;;
12896;SDS011;6516;35.028;32.372;2023-04-30T19:34:17;14.98;;;10.18;;
12896;SDS011;6516;35.028;32.372;2023-04-30T19:36:45;18.25;;;10.07;;
12896;SDS011;6516;35.028;32.372;2023-04-30T19:39:13;14.90;;;9.60;;
12896;SDS011;6516;35.028;32.372;2023-04-30T19:41:41;13.27;;;9.47;;
12896;SDS011;6516;35.028;32.372;2023-04-30T19:44:08;15.35;;;10.40;;
12896;SDS011;6516;35.028;32.372;2023-04-30T19:46:36;16.65;;;10.10;;
12896;SDS011;6516;35.028;32.372;2023-04-30T19:49:06;15.48;;;9.57;;
12896;SDS011;6516;35.028;32.372;2023-04-30T19:51:35;16.60;;;10.30;;
12896;SDS011;6516;35.028;32.372;2023-04-30T19:54:03;17.47;;;9.83;;
12896;SDS011;6516;35.028;32.372;2023-04-30T19:56:33;15.23;;;10.35;;
12896;SDS011;6516;35.028;32.372;2023-04-30T19:59:01;16.85;;;10.98;;
12896;SDS011;6516;35.028;32.372;2023-04-30T20:01:29;16.38;;;9.90;;
12896;SDS011;6516;35.028;32.372;2023-04-30T20:03:57;15.00;;;10.68;;
12896;SDS011;6516;35.028;32.372;2023-04-30T20:06:24;18.23;;;9.80;;
12896;SDS011;6516;35.028;32.372;2023-04-30T20:08:54;17.67;;;9.95;;
12896;SDS011;6516;35.028;32.372;2023-04-30T20:11:24;14.63;;;9.88;;
12896;SDS011;6516;35.028;32.372;2023-04-30T20:13:52;16.15;;;10.30;;
12896;SDS011;6516;35.028;32.372;2023-04-30T20:16:20;19.45;;;11.02;;
12896;SDS011;6516;35.028;32.372;2023-04-30T20:18:48;14.90;;;9.97;;
12896;SDS011;6516;35.028;32.372;2023-04-30T20:21:16;16.67;;;10.48;;
12896;SDS011;6516;35.028;32.372;2023-04-30T20:23:45;17.58;;;10.77;;
12896;SDS011;6516;35.028;32.372;2023-04-30T20:26:14;16.95;;;10.65;;
12896;SDS011;6516;35.028;32.372;2023-04-30T20:28:42;18.33;;;10.70;;
12896;SDS011;6516;35.028;32.372;2023-04-30T20:31:10;16.10;;;10.40;;
12896;SDS011;6516;35.028;32.372;2023-04-30T20:33:39;19.50;;;11.55;;
12896;SDS011;6516;35.028;32.372;2023-04-30T20:36:07;16.42;;;10.82;;
12896;SDS011;6516;35.028;32.372;2023-04-30T20:38:34;18.80;;;10.63;;
12896;SDS011;6516;35.028;32.372;2023-04-30T20:41:02;18.02;;;12.02;;
12896;SDS011;6516;35.028;32.372;2023-04-30T20:43:31;20.97;;;12.00;;
12896;SDS011;6516;35.028;32.372;2023-04-30T20:45:59;19.08;;;12.32;;
12896;SDS011;6516;35.028;32.372;2023-04-30T20:48:27;18.02;;;11.57;;
12896;SDS011;6516;35.028;32.372;2023-04-30T20:50:54;22.85;;;13.25;;
12896;SDS011;6516;35.028;32.372;2023-04-30T20:53:22;18.58;;;11.95;;
12896;SDS011;6516;35.028;32.372;2023-04-30T20:55:50;18.17;;;10.90;;
12896;SDS011;6516;35.028;32.372;2023-04-30T20:58:23;20.73;;;11.57;;
12896;SDS011;6516;35.028;32.372;2023-04-30T21:00:54;19.83;;;11.15;;
12896;SDS011;6516;35.028;32.372;2023-04-30T21:03:22;17.65;;;11.75;;
12896;SDS011;6516;35.028;32.372;2023-04-30T21:05:49;18.88;;;11.85;;
12896;SDS011;6516;35.028;32.372;2023-04-30T21:08:17;20.73;;;11.90;;
12896;SDS011;6516;35.028;32.372;2023-04-30T21:10:45;21.60;;;11.90;;
12896;SDS011;6516;35.028;32.372;2023-04-30T21:13:13;18.80;;;11.80;;
12896;SDS011;6516;35.028;32.372;2023-04-30T21:15:41;21.95;;;13.10;;
12896;SDS011;6516;35.028;32.372;2023-04-30T21:18:11;19.25;;;12.60;;
12896;SDS011;6516;35.028;32.372;2023-04-30T21:20:38;22.33;;;13.57;;
12896;SDS011;6516;35.028;32.372;2023-04-30T21:23:06;20.42;;;12.50;;
12896;SDS011;6516;35.028;32.372;2023-04-30T21:25:34;19.27;;;13.23;;
12896;SDS011;6516;35.028;32.372;2023-04-30T21:28:04;27.13;;;13.18;;
12896;SDS011;6516;35.028;32.372;2023-04-30T21:30:34;23.45;;;13.27;;